Terminal Aerodrome Forecast
Issued by NWS

Home | Current Version | Previous Version | Text Only | Print | Product List | Glossary On
Versions: 1 2 3 4 5 6 7 8 9 10 11 12 13 14 15 16 17 18 19 20
000
FTUS43 KAPX 300535
TAFAPN
TAF
KAPN 300535Z 3006/3106 00000KT P6SM FEW250
     FM301000 VRB03KT 5SM BR BKN250
     FM301300 24006KT P6SM BKN200
     FM301500 25007KT P6SM VCSH SCT050 BKN150
     FM302200 29008KT P6SM VCSH SCT050 BKN110
     FM310100 32006KT P6SM VCSH SCT050 BKN080=

USA.gov is the U.S. government's official web portal to all federal, state and local government web resources and services.